createdAt,value
2023-05-13T00:00:57.732Z,99242.80
2023-05-13T00:05:59.816Z,99250.14
2023-05-13T00:11:01.836Z,99250.86
2023-05-13T00:16:03.877Z,99250.42
2023-05-13T00:21:06.191Z,99245.45
2023-05-13T00:26:08.121Z,99245.80
2023-05-13T00:31:10.407Z,99247.09
2023-05-13T00:36:12.446Z,99247.21
2023-05-13T00:41:14.428Z,99246.27
2023-05-13T00:46:16.541Z,99251.86
2023-05-13T00:51:18.738Z,99258.21
2023-05-13T00:56:21.975Z,99254.59
2023-05-13T01:01:51.497Z,99258.13
2023-05-13T01:07:28.822Z,99260.27
2023-05-13T01:12:36.850Z,99261.16
2023-05-13T01:17:50.554Z,99263.04
2023-05-13T01:22:52.581Z,99268.45
2023-05-13T01:27:54.708Z,99274.86
2023-05-13T01:32:56.924Z,99275.27
2023-05-13T01:38:00.596Z,99274.55
2023-05-13T01:43:02.457Z,99277.42
2023-05-13T01:48:04.983Z,99277.75
2023-05-13T01:53:16.880Z,99275.67
2023-05-13T01:58:21.156Z,99274.55
2023-05-13T02:03:23.170Z,99273.34
2023-05-13T02:08:25.425Z,99274.40
2023-05-13T02:13:27.273Z,99274.52
2023-05-13T02:18:29.089Z,99276.88
2023-05-13T02:23:30.811Z,99278.33
2023-05-13T02:28:32.488Z,99277.39
2023-05-13T02:33:34.281Z,99272.23
2023-05-13T02:38:36.121Z,99277.79
2023-05-13T02:43:38.240Z,99277.63
2023-05-13T02:48:40.465Z,99276.80
2023-05-13T02:53:42.228Z,99278.19
2023-05-13T02:58:45.031Z,99282.89
2023-05-13T03:03:47.284Z,99287.23
2023-05-13T03:08:49.027Z,99281.62
2023-05-13T03:13:50.764Z,99285.70
2023-05-13T03:18:52.525Z,99282.06
2023-05-13T03:23:54.744Z,99287.38
2023-05-13T03:28:56.475Z,99291.47
2023-05-13T03:33:58.639Z,99295.05
2023-05-13T03:39:00.654Z,99300.34
2023-05-13T03:44:02.971Z,99304.86
2023-05-13T03:49:04.821Z,99304.60
2023-05-13T03:54:06.647Z,99307.80
2023-05-13T03:59:08.384Z,99308.58
2023-05-13T04:04:11.044Z,99317.16
2023-05-13T04:09:12.727Z,99318.40
2023-05-13T04:14:14.478Z,99324.23
2023-05-13T04:19:18.411Z,99325.27
2023-05-13T04:24:20.111Z,99335.32
2023-05-13T04:29:24.013Z,99341.81
2023-05-13T04:34:26.006Z,99345.87
2023-05-13T04:39:27.803Z,99347.23
2023-05-13T04:44:30.003Z,99353.48
2023-05-13T04:49:32.043Z,99357.18
2023-05-13T04:54:36.007Z,99364.38
2023-05-13T04:59:37.928Z,99364.17
2023-05-13T05:04:41.617Z,99364.01
2023-05-13T05:09:48.113Z,99370.98
2023-05-13T05:14:49.913Z,99367.77
2023-05-13T05:19:51.768Z,99376.30
2023-05-13T05:24:53.693Z,99384.65
2023-05-13T05:29:55.467Z,99382.27
2023-05-13T05:34:57.617Z,99384.38
2023-05-13T05:39:59.435Z,99388.76
2023-05-13T05:45:01.885Z,99391.54
2023-05-13T05:50:04.411Z,99395.08
2023-05-13T05:55:07.190Z,99393.55
2023-05-13T06:00:09.436Z,99388.06
2023-05-13T06:05:17.020Z,99389.83
2023-05-13T06:10:20.029Z,99389.75
2023-05-13T06:15:23.108Z,99388.20
2023-05-13T06:20:24.894Z,99391.73
2023-05-13T06:25:26.666Z,99395.29
2023-05-13T06:30:28.418Z,99398.36
2023-05-13T06:35:30.462Z,99392.40
2023-05-13T06:40:33.320Z,99396.94
2023-05-13T06:45:35.446Z,99402.23
2023-05-13T06:50:37.323Z,99395.69
2023-05-13T06:55:41.828Z,99395.05
2023-05-13T07:00:44.228Z,99386.16
2023-05-13T07:05:46.216Z,99385.96
2023-05-13T07:10:47.897Z,99378.40
2023-05-13T07:15:49.990Z,99368.14
2023-05-13T07:20:52.478Z,99366.03
2023-05-13T07:25:54.216Z,99367.71
2023-05-13T07:30:56.070Z,99371.76
2023-05-13T07:35:57.913Z,99362.16
2023-05-13T07:40:59.665Z,99365.38
2023-05-13T07:46:03.276Z,99360.22
2023-05-13T07:51:05.241Z,99358.66
2023-05-13T07:56:07.879Z,99355.70
2023-05-13T08:01:09.578Z,99354.92
2023-05-13T08:06:11.520Z,99352.94
2023-05-13T08:11:13.717Z,99354.92
2023-05-13T08:16:15.380Z,99350.52
2023-05-13T08:21:17.238Z,99346.41
2023-05-13T08:26:19.232Z,99350.52
2023-05-13T08:31:20.962Z,99355.13
2023-05-13T08:36:23.314Z,99351.11
2023-05-13T08:41:25.059Z,99346.79
2023-05-13T08:46:32.889Z,99343.26
2023-05-13T08:51:34.686Z,99348.33
2023-05-13T08:56:37.225Z,99347.33
2023-05-13T09:01:39.516Z,99350.41
2023-05-13T09:06:41.352Z,99346.74
2023-05-13T09:11:44.728Z,99347.83
2023-05-13T09:16:47.717Z,99345.89
2023-05-13T09:21:49.656Z,99348.86
2023-05-13T09:26:51.802Z,99348.55
2023-05-13T09:31:59.483Z,99341.56
2023-05-13T09:37:02.476Z,99336.48
2023-05-13T09:42:05.432Z,99338.02
2023-05-13T09:47:11.273Z,99332.46
2023-05-13T09:52:16.898Z,99327.89
2023-05-13T09:57:18.570Z,99325.95
2023-05-13T10:02:20.448Z,99329.16
2023-05-13T10:07:25.883Z,99320.84
2023-05-13T10:12:30.445Z,99323.27
2023-05-13T10:17:32.736Z,99333.75
2023-05-13T10:22:37.299Z,99327.20
2023-05-13T10:27:39.905Z,99320.94
2023-05-13T10:32:41.950Z,99325.59
2023-05-13T10:37:52.582Z,99320.38
2023-05-13T10:43:15.876Z,99327.27
2023-05-13T10:48:18.974Z,99322.55
2023-05-13T10:53:24.110Z,99328.77
2023-05-13T10:58:33.850Z,99324.38
2023-05-13T11:03:40.222Z,99313.40
2023-05-13T11:08:44.039Z,99325.73
2023-05-13T11:13:45.668Z,99329.05
2023-05-13T11:18:47.569Z,99323.59
2023-05-13T11:24:04.188Z,99323.86
2023-05-13T11:29:06.538Z,99325.23
2023-05-13T11:34:16.642Z,99325.31
2023-05-13T11:39:21.461Z,99328.48
2023-05-13T11:44:25.866Z,99329.13
2023-05-13T11:49:37.035Z,99325.69
2023-05-13T11:54:48.475Z,99319.90
2023-05-13T12:00:02.337Z,99324.36
2023-05-13T12:05:07.195Z,99320.85
2023-05-13T12:10:09.379Z,99328.27
2023-05-13T12:15:22.237Z,99333.73
2023-05-13T12:20:25.217Z,99340.04
2023-05-13T12:25:44.110Z,99342.95
2023-05-13T12:30:57.085Z,99335.96
2023-05-13T12:36:21.760Z,99338.15
2023-05-13T12:41:25.898Z,99348.35
2023-05-13T12:46:28.080Z,99338.55
2023-05-13T12:51:30.675Z,99333.63
2023-05-13T12:56:32.480Z,99336.18
2023-05-13T13:01:34.970Z,99340.46
2023-05-13T13:06:36.869Z,99341.93
2023-05-13T13:11:39.293Z,99337.25
2023-05-13T13:16:43.881Z,99335.33
2023-05-13T13:21:45.534Z,99328.96
2023-05-13T13:26:47.277Z,99322.35
2023-05-13T13:31:49.164Z,99325.37
2023-05-13T13:36:50.989Z,99319.77
2023-05-13T13:41:52.736Z,99320.89
2023-05-13T13:46:54.454Z,99313.17
2023-05-13T13:51:56.340Z,99312.61
2023-05-13T13:56:58.452Z,99310.82
2023-05-13T14:02:00.264Z,99310.70
2023-05-13T14:07:02.046Z,99309.54
2023-05-13T14:12:04.167Z,99305.78
2023-05-13T14:17:05.891Z,99308.26
2023-05-13T14:22:07.524Z,99307.23
2023-05-13T14:27:09.329Z,99308.89
2023-05-13T14:32:11.031Z,99311.38
2023-05-13T14:37:12.787Z,99307.94
2023-05-13T14:42:14.843Z,99303.06
2023-05-13T14:47:16.547Z,99305.77
2023-05-13T14:52:18.111Z,99307.77
2023-05-13T14:57:20.144Z,99307.14
2023-05-13T15:02:22.098Z,99309.11
2023-05-13T15:07:23.929Z,99308.72
2023-05-13T15:12:26.324Z,99310.27
2023-05-13T15:17:29.757Z,99309.02
2023-05-13T15:22:33.350Z,99308.58
2023-05-13T15:27:35.991Z,99315.16
2023-05-13T15:32:37.666Z,99315.00
2023-05-13T15:37:42.654Z,99311.04
2023-05-13T15:42:44.698Z,99313.55
2023-05-13T15:47:46.514Z,99307.05
2023-05-13T15:52:48.300Z,99304.48
2023-05-13T15:57:50.794Z,99306.55
2023-05-13T16:02:52.503Z,99303.34
2023-05-13T16:07:54.482Z,99300.09
2023-05-13T16:12:56.025Z,99300.95
2023-05-13T16:17:57.790Z,99296.95
2023-05-13T16:22:59.553Z,99296.95
2023-05-13T16:28:01.437Z,99298.94
2023-05-13T16:33:03.629Z,99297.46
2023-05-13T16:38:05.388Z,99291.09
2023-05-13T16:43:07.444Z,99286.25
2023-05-13T16:48:09.118Z,99283.33
2023-05-13T16:53:11.012Z,99288.92
2023-05-13T16:58:12.748Z,99281.27
2023-05-13T17:03:14.673Z,99283.04
2023-05-13T17:08:18.942Z,99286.48
2023-05-13T17:13:21.309Z,99289.08
2023-05-13T17:18:22.931Z,99288.29
2023-05-13T17:23:24.549Z,99288.53
2023-05-13T17:28:26.256Z,99288.86
2023-05-13T17:33:28.140Z,99295.05
2023-05-13T17:38:29.914Z,99296.36
2023-05-13T17:43:31.692Z,99293.34
2023-05-13T17:48:33.449Z,99298.67
2023-05-13T17:53:35.379Z,99298.44
2023-05-13T17:58:37.267Z,99303.41
2023-05-13T18:03:38.909Z,99306.77
2023-05-13T18:08:40.839Z,99309.43
2023-05-13T18:13:42.409Z,99312.41
2023-05-13T18:18:44.434Z,99313.76
2023-05-13T18:23:46.627Z,99315.27
2023-05-13T18:28:48.415Z,99323.40
2023-05-13T18:33:50.160Z,99333.59
2023-05-13T18:38:52.026Z,99335.16
2023-05-13T18:43:53.851Z,99336.61
2023-05-13T18:48:55.708Z,99337.55
2023-05-13T18:53:57.404Z,99345.73
2023-05-13T18:58:59.034Z,99341.73
2023-05-13T19:04:01.097Z,99345.11
2023-05-13T19:09:02.940Z,99348.51
2023-05-13T19:14:04.621Z,99346.48
2023-05-13T19:19:06.288Z,99345.77
2023-05-13T19:24:08.068Z,99348.08
2023-05-13T19:29:10.879Z,99353.77
2023-05-13T19:34:14.482Z,99360.52
2023-05-13T19:39:16.280Z,99366.27
2023-05-13T19:44:19.171Z,99367.78
2023-05-13T19:49:20.822Z,99369.18
2023-05-13T19:54:22.454Z,99369.98
2023-05-13T19:59:24.262Z,99361.82
2023-05-13T20:04:25.967Z,99359.66
2023-05-13T20:09:27.637Z,99361.31
2023-05-13T20:14:51.923Z,99361.34
2023-05-13T20:19:54.731Z,99352.62
2023-05-13T20:24:56.410Z,99354.09
2023-05-13T20:30:00.061Z,99351.91
2023-05-13T20:35:02.054Z,99349.75
2023-05-13T20:40:04.632Z,99344.79
2023-05-13T20:45:08.607Z,99343.06
2023-05-13T20:50:11.106Z,99340.40
2023-05-13T20:55:15.388Z,99343.95
2023-05-13T21:00:17.524Z,99343.64
2023-05-13T21:05:19.323Z,99344.38
2023-05-13T21:10:22.341Z,99342.60
2023-05-13T21:15:32.519Z,99341.71
2023-05-13T21:20:34.229Z,99342.32
2023-05-13T21:25:36.326Z,99344.02
2023-05-13T21:30:38.024Z,99350.95
2023-05-13T21:35:39.775Z,99349.94
2023-05-13T21:40:43.412Z,99345.36
2023-05-13T21:45:47.935Z,99341.98
2023-05-13T21:50:50.937Z,99340.27
2023-05-13T21:55:55.598Z,99344.80
2023-05-13T22:01:00.199Z,99335.06
2023-05-13T22:06:02.942Z,99332.92
2023-05-13T22:11:04.570Z,99333.18
2023-05-13T22:16:06.339Z,99334.78
2023-05-13T22:21:08.086Z,99334.60
2023-05-13T22:26:10.119Z,99331.43
2023-05-13T22:31:11.827Z,99333.22
2023-05-13T22:36:13.964Z,99327.42
2023-05-13T22:41:15.744Z,99325.74
2023-05-13T22:46:17.544Z,99330.80
2023-05-13T22:51:19.287Z,99333.73
2023-05-13T22:56:21.972Z,99333.56
2023-05-13T23:01:23.771Z,99333.42
2023-05-13T23:06:28.693Z,99332.84
2023-05-13T23:11:32.528Z,99329.56
2023-05-13T23:16:36.185Z,99320.89
2023-05-13T23:21:37.991Z,99320.20
2023-05-13T23:26:39.766Z,99312.63
2023-05-13T23:31:41.521Z,99313.44
2023-05-13T23:36:43.288Z,99310.92
2023-05-13T23:41:45.659Z,99310.83
2023-05-13T23:46:50.500Z,99310.27
2023-05-13T23:52:02.726Z,99307.89
2023-05-13T23:57:04.508Z,99300.46
